sensor_id;sensor_type;location;lat;lon;timestamp;P1;P2;P0
74426;PMS7003;62859;53.906;27.430;2023-02-26T00:02:03;7;6.3;4.3
74426;PMS7003;62859;53.906;27.430;2023-02-26T00:06:49;7.7;7.7;5.7
74426;PMS7003;62859;53.906;27.430;2023-02-26T00:11:27;11.3;8.3;5
74426;PMS7003;62859;53.906;27.430;2023-02-26T00:17:07;6;5.5;3.5
74426;PMS7003;62859;53.906;27.430;2023-02-26T00:21:25;7;5.7;3.7
74426;PMS7003;62859;53.906;27.430;2023-02-26T00:27:05;9.7;6.7;5.3
74426;PMS7003;62859;53.906;27.430;2023-02-26T00:31:49;7;7;5
74426;PMS7003;62859;53.906;27.430;2023-02-26T00:36:42;8.3;6.5;4.3
74426;PMS7003;62859;53.906;27.430;2023-02-26T00:42:03;9.3;7.7;5
74426;PMS7003;62859;53.906;27.430;2023-02-26T00:46:40;6.3;5.3;4.7
74426;PMS7003;62859;53.906;27.430;2023-02-26T00:52:04;8.5;7;5.3
74426;PMS7003;62859;53.906;27.430;2023-02-26T00:56:41;9.3;9;5.7
74426;PMS7003;62859;53.906;27.430;2023-02-26T01:01:13;8.7;7.7;4.7
74426;PMS7003;62859;53.906;27.430;2023-02-26T01:07:03;8.3;7.3;5.7
74426;PMS7003;62859;53.906;27.430;2023-02-26T01:11:27;8.5;6.5;4.5
74426;PMS7003;62859;53.906;27.430;2023-02-26T01:17:07;5;5;4.3
74426;PMS7003;62859;53.906;27.430;2023-02-26T01:21:50;6.3;5.3;3.3
74426;PMS7003;62859;53.906;27.430;2023-02-26T01:26:27;7.3;7.3;3.7
74426;PMS7003;62859;53.906;27.430;2023-02-26T01:31:48;7.3;5.8;4.3
74426;PMS7003;62859;53.906;27.430;2023-02-26T01:36:26;6.3;6;3
74426;PMS7003;62859;53.906;27.430;2023-02-26T01:42:04;7.3;6.7;4.3
74426;PMS7003;62859;53.906;27.430;2023-02-26T01:46:53;8.7;6.3;4.3
74426;PMS7003;62859;53.906;27.430;2023-02-26T01:51:57;8.8;7;3.3
74426;PMS7003;62859;53.906;27.430;2023-02-26T01:56:47;5.7;5.3;3.7
74426;PMS7003;62859;53.906;27.430;2023-02-26T02:01:39;8.7;6;5.3
74426;PMS7003;62859;53.906;27.430;2023-02-26T02:07:05;6;6;4.3
74426;PMS7003;62859;53.906;27.430;2023-02-26T02:11:52;9.8;6;3.5
74426;PMS7003;62859;53.906;27.430;2023-02-26T02:16:42;5.7;5.3;3.7
74426;PMS7003;62859;53.906;27.430;2023-02-26T02:21:40;7.3;5.7;4.3
74426;PMS7003;62859;53.906;27.430;2023-02-26T02:26:56;5.3;4;2.3
74426;PMS7003;62859;53.906;27.430;2023-02-26T02:32:05;4.8;4.5;2.5
74426;PMS7003;62859;53.906;27.430;2023-02-26T02:37:05;4.3;3;2.3
74426;PMS7003;62859;53.906;27.430;2023-02-26T02:41:29;3.7;3.7;2.7
74426;PMS7003;62859;53.906;27.430;2023-02-26T02:46:49;4.3;4.3;2.8
74426;PMS7003;62859;53.906;27.430;2023-02-26T02:51:25;3.7;3.3;2.3
74426;PMS7003;62859;53.906;27.430;2023-02-26T02:57:06;6.7;4;2.3
74426;PMS7003;62859;53.906;27.430;2023-02-26T03:01:47;6.7;4.7;2.3
74426;PMS7003;62859;53.906;27.430;2023-02-26T03:06:25;7.5;5.3;3.5
74426;PMS7003;62859;53.906;27.430;2023-02-26T03:11:47;6;5;3
74426;PMS7003;62859;53.906;27.430;2023-02-26T03:16:43;5.3;4;2.7
74426;PMS7003;62859;53.906;27.430;2023-02-26T03:22:04;5.7;4.7;2.7
74426;PMS7003;62859;53.906;27.430;2023-02-26T03:26:49;9;6.5;5.3
74426;PMS7003;62859;53.906;27.430;2023-02-26T03:31:28;6;6;5
74426;PMS7003;62859;53.906;27.430;2023-02-26T03:36:36;9.3;6.7;5
74426;PMS7003;62859;53.906;27.430;2023-02-26T03:41:38;7.3;7;5
74426;PMS7003;62859;53.906;27.430;2023-02-26T03:47:05;7.8;5.8;4.3
74426;PMS7003;62859;53.906;27.430;2023-02-26T03:51:49;6.7;6;3
74426;PMS7003;62859;53.906;27.430;2023-02-26T03:56:14;7.7;6.7;4
74426;PMS7003;62859;53.906;27.430;2023-02-26T04:01:48;8;6.3;5
74426;PMS7003;62859;53.906;27.430;2023-02-26T04:06:39;7.8;6.8;5
74426;PMS7003;62859;53.906;27.430;2023-02-26T04:12:03;9;8.7;5
74426;PMS7003;62859;53.906;27.430;2023-02-26T04:16:47;10.3;8.7;5.7
74426;PMS7003;62859;53.906;27.430;2023-02-26T04:21:13;9.3;6.7;3
74426;PMS7003;62859;53.906;27.430;2023-02-26T04:27:03;10;7.8;5.5
74426;PMS7003;62859;53.906;27.430;2023-02-26T04:31:25;9.7;9.7;6
74426;PMS7003;62859;53.906;27.430;2023-02-26T04:37:01;7.7;6;4
74426;PMS7003;62859;53.906;27.430;2023-02-26T04:41:49;9.8;8.8;6.3
74426;PMS7003;62859;53.906;27.430;2023-02-26T04:46:27;11;7.7;5.7
74426;PMS7003;62859;53.906;27.430;2023-02-26T04:51:49;9.3;9.3;5.7
74426;PMS7003;62859;53.906;27.430;2023-02-26T04:56:13;9.7;9.7;7.3
74426;PMS7003;62859;53.906;27.430;2023-02-26T05:01:15;8.8;7.8;5
74426;PMS7003;62859;53.906;27.430;2023-02-26T05:06:49;9;8.3;7
74426;PMS7003;62859;53.906;27.430;2023-02-26T05:11:13;8.7;7.3;5.3
74426;PMS7003;62859;53.906;27.430;2023-02-26T05:16:49;7;7;5.3
74426;PMS7003;62859;53.906;27.430;2023-02-26T05:21:25;11.8;10.3;6.5
74426;PMS7003;62859;53.906;27.430;2023-02-26T05:27:03;8;8;5.3
74426;PMS7003;62859;53.906;27.430;2023-02-26T05:31:49;7.7;7;5
74426;PMS7003;62859;53.906;27.430;2023-02-26T05:36:27;11.3;9;6.3
74426;PMS7003;62859;53.906;27.430;2023-02-26T05:41:49;10.8;8.8;5.8
74426;PMS7003;62859;53.906;27.430;2023-02-26T05:46:27;13;10.3;7
74426;PMS7003;62859;53.906;27.430;2023-02-26T05:52:03;9.3;7.7;5.7
74426;PMS7003;62859;53.906;27.430;2023-02-26T05:56:47;9.7;8.3;6.3
74426;PMS7003;62859;53.906;27.430;2023-02-26T06:01:27;11.3;10.5;6.8
74426;PMS7003;62859;53.906;27.430;2023-02-26T06:06:47;9;8.7;7
74426;PMS7003;62859;53.906;27.430;2023-02-26T06:11:25;9.7;8.3;5.7
74426;PMS7003;62859;53.906;27.430;2023-02-26T06:17:05;10.7;8.7;5
74426;PMS7003;62859;53.906;27.430;2023-02-26T06:21:49;9.3;8;5.8
74426;PMS7003;62859;53.906;27.430;2023-02-26T06:26:39;8.7;8;5.3
74426;PMS7003;62859;53.906;27.430;2023-02-26T06:31:41;9;7;5.3
74426;PMS7003;62859;53.906;27.430;2023-02-26T06:36:39;7.3;6.5;5
74426;PMS7003;62859;53.906;27.430;2023-02-26T06:42:05;8;7.3;5
74426;PMS7003;62859;53.906;27.430;2023-02-26T06:46:49;8.3;8.3;4.7
74426;PMS7003;62859;53.906;27.430;2023-02-26T06:51:27;11;8;5.3
74426;PMS7003;62859;53.906;27.430;2023-02-26T06:56:35;8;6.8;5
74426;PMS7003;62859;53.906;27.430;2023-02-26T07:01:25;6.7;5.7;3.7
74426;PMS7003;62859;53.906;27.430;2023-02-26T07:07:03;7;6;5
74426;PMS7003;62859;53.906;27.430;2023-02-26T07:11:47;9.3;6.7;4.3
74426;PMS7003;62859;53.906;27.430;2023-02-26T07:16:13;7.5;6;4.8
74426;PMS7003;62859;53.906;27.430;2023-02-26T07:21:49;12.7;10.7;6.7
74426;PMS7003;62859;53.906;27.430;2023-02-26T07:26:39;12;9.3;6.7
74426;PMS7003;62859;53.906;27.430;2023-02-26T07:32:03;8;6.7;5
74426;PMS7003;62859;53.906;27.430;2023-02-26T07:36:47;6.5;5.8;3.8
74426;PMS7003;62859;53.906;27.430;2023-02-26T07:41:13;6;5.7;3.7
74426;PMS7003;62859;53.906;27.430;2023-02-26T07:46:47;9;8;4.3
74426;PMS7003;62859;53.906;27.430;2023-02-26T07:51:43;7;4.3;2.7
74426;PMS7003;62859;53.906;27.430;2023-02-26T07:57:05;6.3;6.3;4
74426;PMS7003;62859;53.906;27.430;2023-02-26T08:01:35;6;5;3.3
74426;PMS7003;62859;53.906;27.430;2023-02-26T08:06:13;8.3;6.3;3.3
74426;PMS7003;62859;53.906;27.430;2023-02-26T08:11:47;4.3;3.3;2
74426;PMS7003;62859;53.906;27.430;2023-02-26T08:16:25;5.3;4.3;2.5
74426;PMS7003;62859;53.906;27.430;2023-02-26T08:22:05;6.3;4.7;2.3
74426;PMS7003;62859;53.906;27.430;2023-02-26T08:26:49;5.7;4.7;3
74426;PMS7003;62859;53.906;27.430;2023-02-26T08:31:13;4;3.5;2.3
74426;PMS7003;62859;53.906;27.430;2023-02-26T08:36:49;4;2.7;2
74426;PMS7003;62859;53.906;27.430;2023-02-26T08:41:39;4.3;4.3;2.7
74426;PMS7003;62859;53.906;27.430;2023-02-26T08:47:05;5.7;4.3;3.7
74426;PMS7003;62859;53.906;27.430;2023-02-26T08:51:37;8.5;6.3;3.5
74426;PMS7003;62859;53.906;27.430;2023-02-26T08:56:27;7.3;5.3;3.7
74426;PMS7003;62859;53.906;27.430;2023-02-26T09:01:41;4;4;2.7
74426;PMS7003;62859;53.906;27.430;2023-02-26T09:06:35;5.7;5.3;2.7
74426;PMS7003;62859;53.906;27.430;2023-02-26T09:11:35;5.7;5.3;2.7
74426;PMS7003;62859;53.906;27.430;2023-02-26T09:16:35;6;4.7;2.3
74426;PMS7003;62859;53.906;27.430;2023-02-26T09:21:23;6.8;6;4
74426;PMS7003;62859;53.906;27.430;2023-02-26T09:26:31;6;4.7;3
74426;PMS7003;62859;53.906;27.430;2023-02-26T09:31:37;6.7;5.3;3
74426;PMS7003;62859;53.906;27.430;2023-02-26T09:37:05;7.7;6.3;4.7
74426;PMS7003;62859;53.906;27.430;2023-02-26T09:41:23;7.3;6.3;5.3
74426;PMS7003;62859;53.906;27.430;2023-02-26T09:46:29;7.3;6.3;5
74426;PMS7003;62859;53.906;27.430;2023-02-26T09:51:50;6;5.7;3.7
74426;PMS7003;62859;53.906;27.430;2023-02-26T09:56:25;5.7;5.3;3.7
74426;PMS7003;62859;53.906;27.430;2023-02-26T10:01:51;4.5;4.5;2.8
74426;PMS7003;62859;53.906;27.430;2023-02-26T10:06:25;2.3;2.3;2
74426;PMS7003;62859;53.906;27.430;2023-02-26T10:11:42;4.7;4.3;2.3
74426;PMS7003;62859;53.906;27.430;2023-02-26T10:17:04;7;5.3;3
74426;PMS7003;62859;53.906;27.430;2023-02-26T10:21:38;4;3;2.5
74426;PMS7003;62859;53.906;27.430;2023-02-26T10:26:49;6;4.3;3
74426;PMS7003;62859;53.906;27.430;2023-02-26T10:31:48;3.3;3.3;2.7
74426;PMS7003;62859;53.906;27.430;2023-02-26T10:36:26;4.5;4;2.3
74426;PMS7003;62859;53.906;27.430;2023-02-26T10:42:08;7.3;5;3.3
74426;PMS7003;62859;53.906;27.430;2023-02-26T10:46:28;6;4.3;2.7
74426;PMS7003;62859;53.906;27.430;2023-02-26T10:51:28;6;4.3;3
74426;PMS7003;62859;53.906;27.430;2023-02-26T10:56:28;4.8;4.5;2.5
74426;PMS7003;62859;53.906;27.430;2023-02-26T11:01:15;4.3;4.3;2.3
74426;PMS7003;62859;53.906;27.430;2023-02-26T11:07:03;4;4;2.7
74426;PMS7003;62859;53.906;27.430;2023-02-26T11:11:39;4.7;4.3;2.3
74426;PMS7003;62859;53.906;27.430;2023-02-26T11:16:51;5;4.8;3.3
74426;PMS7003;62859;53.906;27.430;2023-02-26T11:21:28;5.3;4;2
74426;PMS7003;62859;53.906;27.430;2023-02-26T11:26:14;7;5;3
74426;PMS7003;62859;53.906;27.430;2023-02-26T11:32:01;3.7;3.3;2
74426;PMS7003;62859;53.906;27.430;2023-02-26T11:36:28;4;4;2.8
74426;PMS7003;62859;53.906;27.430;2023-02-26T11:41:49;5.3;5;2.7
74426;PMS7003;62859;53.906;27.430;2023-02-26T11:46:40;5;4.3;2.3
74426;PMS7003;62859;53.906;27.430;2023-02-26T11:51:14;5.3;4.3;2
74426;PMS7003;62859;53.906;27.430;2023-02-26T11:57:04;6.3;4.5;2.3
74426;PMS7003;62859;53.906;27.430;2023-02-26T12:01:37;3.7;2.7;1.7
74426;PMS7003;62859;53.906;27.430;2023-02-26T12:06:49;4;2.7;2
74426;PMS7003;62859;53.906;27.430;2023-02-26T12:11:33;3.3;3.3;2
74426;PMS7003;62859;53.906;27.430;2023-02-26T12:16:14;4.5;3.3;2.3
74426;PMS7003;62859;53.906;27.430;2023-02-26T12:22:08;5;3.3;2.3
74426;PMS7003;62859;53.906;27.430;2023-02-26T12:26:25;5.3;4.3;2.3
74426;PMS7003;62859;53.906;27.430;2023-02-26T12:31:51;5.8;4.5;3
74426;PMS7003;62859;53.906;27.430;2023-02-26T12:36:42;3.7;2.7;1.7
74426;PMS7003;62859;53.906;27.430;2023-02-26T12:41:18;6;4.7;2
74426;PMS7003;62859;53.906;27.430;2023-02-26T12:47:09;2.7;2.7;1.7
74426;PMS7003;62859;53.906;27.430;2023-02-26T12:51:16;4.8;3.8;2.5
74426;PMS7003;62859;53.906;27.430;2023-02-26T12:56:58;6;4.3;2.7
74426;PMS7003;62859;53.906;27.430;2023-02-26T13:01:53;2.7;2.7;2.3
74426;PMS7003;62859;53.906;27.430;2023-02-26T13:06:50;4.3;2.3;1.7
74426;PMS7003;62859;53.906;27.430;2023-02-26T13:12:07;3.3;3.3;2
74426;PMS7003;62859;53.906;27.430;2023-02-26T13:16:16;2.7;1.3;1
74426;PMS7003;62859;53.906;27.430;2023-02-26T13:21:50;3;3;2
74426;PMS7003;62859;53.906;27.430;2023-02-26T13:26:37;3.7;2.3;1.3
74426;PMS7003;62859;53.906;27.430;2023-02-26T13:31:28;1.5;1.5;1.3
74426;PMS7003;62859;53.906;27.430;2023-02-26T13:37:05;2;2;1.3
74426;PMS7003;62859;53.906;27.430;2023-02-26T13:41:37;2.7;1.3;1
74426;PMS7003;62859;53.906;27.430;2023-02-26T13:46:52;2.3;1.7;1.3
74426;PMS7003;62859;53.906;27.430;2023-02-26T13:51:39;2.8;2.3;1
74426;PMS7003;62859;53.906;27.430;2023-02-26T13:56:47;0.7;0.7;0.3
74426;PMS7003;62859;53.906;27.430;2023-02-26T14:01:26;1.3;0.7;0.3
74426;PMS7003;62859;53.906;27.430;2023-02-26T14:06:23;0.3;0.3;0
74426;PMS7003;62859;53.906;27.430;2023-02-26T14:12:03;0.8;0.8;0.5
74426;PMS7003;62859;53.906;27.430;2023-02-26T14:16:54;2;1;0.7
74426;PMS7003;62859;53.906;27.430;2023-02-26T14:21:47;1.7;0.3;0.3
74426;PMS7003;62859;53.906;27.430;2023-02-26T14:26:15;1;0.5;0.3
74426;PMS7003;62859;53.906;27.430;2023-02-26T14:31:19;1.7;0.7;0
74426;PMS7003;62859;53.906;27.430;2023-02-26T14:37:01;1.7;1.7;1
74426;PMS7003;62859;53.906;27.430;2023-02-26T14:41:54;2.3;2.3;0.3
74426;PMS7003;62859;53.906;27.430;2023-02-26T14:46:25;0.3;0.3;0.3
74426;PMS7003;62859;53.906;27.430;2023-02-26T14:51:15;1.3;0.7;0.7
74426;PMS7003;62859;53.906;27.430;2023-02-26T14:56:29;2.7;0.7;0.7
74426;PMS7003;62859;53.906;27.430;2023-02-26T15:02:06;0.7;0.7;0.3
74426;PMS7003;62859;53.906;27.430;2023-02-26T15:06:57;0.8;0.8;0.5
74426;PMS7003;62859;53.906;27.430;2023-02-26T15:11:30;1.3;0.3;0
74426;PMS7003;62859;53.906;27.430;2023-02-26T15:16:24;1;1;0.3
74426;PMS7003;62859;53.906;27.430;2023-02-26T15:21:29;1.3;0.7;0.3
74426;PMS7003;62859;53.906;27.430;2023-02-26T15:26:44;0.8;0.5;0.3
74426;PMS7003;62859;53.906;27.430;2023-02-26T15:31:54;1.3;1;0.3
74426;PMS7003;62859;53.906;27.430;2023-02-26T15:36:15;1;1;0.7
74426;PMS7003;62859;53.906;27.430;2023-02-26T15:41:13;0.7;0.7;0.3
74426;PMS7003;62859;53.906;27.430;2023-02-26T15:46:13;2;1.3;0.8
74426;PMS7003;62859;53.906;27.430;2023-02-26T15:52:03;1;1;0.7
74426;PMS7003;62859;53.906;27.430;2023-02-26T15:56:53;4.3;3;1
74426;PMS7003;62859;53.906;27.430;2023-02-26T16:01:13;1;1;0.7
74426;PMS7003;62859;53.906;27.430;2023-02-26T16:06:34;2;1;0.8
74426;PMS7003;62859;53.906;27.430;2023-02-26T16:11:25;1;0.7;0.3
74426;PMS7003;62859;53.906;27.430;2023-02-26T16:17:03;1.7;1.7;1
74426;PMS7003;62859;53.906;27.430;2023-02-26T16:21:53;1.8;1;0.5
74426;PMS7003;62859;53.906;27.430;2023-02-26T16:26:21;18.3;16;10.3
74426;PMS7003;62859;53.906;27.430;2023-02-26T16:31:48;1.3;0.7;0.7
74426;PMS7003;62859;53.906;27.430;2023-02-26T16:36:13;1.7;1.7;1.3
74426;PMS7003;62859;53.906;27.430;2023-02-26T16:42:01;2;1.8;0.8
74426;PMS7003;62859;53.906;27.430;2023-02-26T16:46:53;2.3;1.3;1
74426;PMS7003;62859;53.906;27.430;2023-02-26T16:51:28;4;1.7;1
74426;PMS7003;62859;53.906;27.430;2023-02-26T16:56:14;2;1.3;1
74426;PMS7003;62859;53.906;27.430;2023-02-26T17:01:14;2;1.3;1.3
74426;PMS7003;62859;53.906;27.430;2023-02-26T17:07:01;2.3;2.3;1
74426;PMS7003;62859;53.906;27.430;2023-02-26T17:12:02;1.3;1.3;1
74426;PMS7003;62859;53.906;27.430;2023-02-26T17:16:13;3;2.7;1.3
74426;PMS7003;62859;53.906;27.430;2023-02-26T17:21:25;2;1.3;0.8
74426;PMS7003;62859;53.906;27.430;2023-02-26T17:26:13;4;2.7;1.3
74426;PMS7003;62859;53.906;27.430;2023-02-26T17:32:01;2.3;2;1.3
74426;PMS7003;62859;53.906;27.430;2023-02-26T17:36:54;2.3;1.3;1
74426;PMS7003;62859;53.906;27.430;2023-02-26T17:41:14;2.8;2;1
74426;PMS7003;62859;53.906;27.430;2023-02-26T17:46:13;2.7;2.7;1.7
74426;PMS7003;62859;53.906;27.430;2023-02-26T17:51:25;2.7;2.3;1
74426;PMS7003;62859;53.906;27.430;2023-02-26T17:57:01;2;2;1.7
74426;PMS7003;62859;53.906;27.430;2023-02-26T18:01:53;3.3;2.8;1.5
74426;PMS7003;62859;53.906;27.430;2023-02-26T18:06:55;5.3;2.3;1.3
74426;PMS7003;62859;53.906;27.430;2023-02-26T18:11:33;2;2;1.3
74426;PMS7003;62859;53.906;27.430;2023-02-26T18:16:27;6.3;4.5;2.8
74426;PMS7003;62859;53.906;27.430;2023-02-26T18:22:01;2.3;1.7;1.7
74426;PMS7003;62859;53.906;27.430;2023-02-26T18:26:14;2.7;2;1.3
74426;PMS7003;62859;53.906;27.430;2023-02-26T18:32:01;2;2;1
74426;PMS7003;62859;53.906;27.430;2023-02-26T18:36:34;4;3;1.8
74426;PMS7003;62859;53.906;27.430;2023-02-26T18:41:25;2.3;1.3;1
74426;PMS7003;62859;53.906;27.430;2023-02-26T18:47:04;7.3;6.3;4
74426;PMS7003;62859;53.906;27.430;2023-02-26T18:51:53;15.7;12.7;7.7
74426;PMS7003;62859;53.906;27.430;2023-02-26T18:57:01;4.3;2.3;1.5
74426;PMS7003;62859;53.906;27.430;2023-02-26T19:01:19;1;1;1
74426;PMS7003;62859;53.906;27.430;2023-02-26T19:06:27;2;1.7;1.7
74426;PMS7003;62859;53.906;27.430;2023-02-26T19:12:01;3;2;1
74426;PMS7003;62859;53.906;27.430;2023-02-26T19:16:53;3;3;1.8
74426;PMS7003;62859;53.906;27.430;2023-02-26T19:22:03;1.3;1.3;1
74426;PMS7003;62859;53.906;27.430;2023-02-26T19:26:13;1.3;1.3;1
74426;PMS7003;62859;53.906;27.430;2023-02-26T19:31:25;2;2;1
74426;PMS7003;62859;53.906;27.430;2023-02-26T19:37:03;2.5;1.8;0.8
74426;PMS7003;62859;53.906;27.430;2023-02-26T19:41:39;3;3;0.7
74426;PMS7003;62859;53.906;27.430;2023-02-26T19:47:01;1.7;0.7;0.3
74426;PMS7003;62859;53.906;27.430;2023-02-26T19:51:33;2.3;1.3;0.3
74426;PMS7003;62859;53.906;27.430;2023-02-26T19:56:49;0.8;0.5;0.5
74426;PMS7003;62859;53.906;27.430;2023-02-26T20:02:01;1;1;0.3
74426;PMS7003;62859;53.906;27.430;2023-02-26T20:06:27;0.7;0.7;0.3
74426;PMS7003;62859;53.906;27.430;2023-02-26T20:12:01;1;0.8;0.3
74426;PMS7003;62859;53.906;27.430;2023-02-26T20:16:33;1.7;1;0.7
74426;PMS7003;62859;53.906;27.430;2023-02-26T20:21:14;1.3;1.3;1
74426;PMS7003;62859;53.906;27.430;2023-02-26T20:26:53;1.7;1.7;0.7
74426;PMS7003;62859;53.906;27.430;2023-02-26T20:32:01;1;1;0.8
74426;PMS7003;62859;53.906;27.430;2023-02-26T20:37:03;1.3;1.3;1
74426;PMS7003;62859;53.906;27.430;2023-02-26T20:41:33;1.7;1.3;0.7
74426;PMS7003;62859;53.906;27.430;2023-02-26T20:46:21;0.7;0.7;0.3
74426;PMS7003;62859;53.906;27.430;2023-02-26T20:52:03;1.5;1.3;0.8
74426;PMS7003;62859;53.906;27.430;2023-02-26T20:56:53;2;1;0.7
74426;PMS7003;62859;53.906;27.430;2023-02-26T21:01:59;1.7;1.7;0.7
74426;PMS7003;62859;53.906;27.430;2023-02-26T21:06:13;2.3;1.7;1
74426;PMS7003;62859;53.906;27.430;2023-02-26T21:11:13;1.5;1.5;1
74426;PMS7003;62859;53.906;27.430;2023-02-26T21:16:29;2.3;1.7;1
74426;PMS7003;62859;53.906;27.430;2023-02-26T21:21:55;4.3;3.7;2.3
74426;PMS7003;62859;53.906;27.430;2023-02-26T21:27:05;1.7;1.3;1
74426;PMS7003;62859;53.906;27.430;2023-02-26T21:31:13;2;1.3;0.8
74426;PMS7003;62859;53.906;27.430;2023-02-26T21:36:47;3.3;1.3;1
74426;PMS7003;62859;53.906;27.430;2023-02-26T21:42:01;2.7;2;1.7
74426;PMS7003;62859;53.906;27.430;2023-02-26T21:47:01;2.3;2;1.3
74426;PMS7003;62859;53.906;27.430;2023-02-26T21:52:03;2;2;1.3
74426;PMS7003;62859;53.906;27.430;2023-02-26T21:56:35;2.3;1.3;1
74426;PMS7003;62859;53.906;27.430;2023-02-26T22:01:13;2.7;2.3;1.3
74426;PMS7003;62859;53.906;27.430;2023-02-26T22:07:05;1.8;1.8;1.5
74426;PMS7003;62859;53.906;27.430;2023-02-26T22:11:55;2;1.7;1.3
74426;PMS7003;62859;53.906;27.430;2023-02-26T22:17:05;4.3;2.7;2
74426;PMS7003;62859;53.906;27.430;2023-02-26T22:21:13;1.7;1.7;1.3
74426;PMS7003;62859;53.906;27.430;2023-02-26T22:26:13;2.5;1.8;1.5
74426;PMS7003;62859;53.906;27.430;2023-02-26T22:32:03;2.7;1.3;1
74426;PMS7003;62859;53.906;27.430;2023-02-26T22:36:53;4;2.7;1.3
74426;PMS7003;62859;53.906;27.430;2023-02-26T22:42:05;3.7;1.7;1
74426;PMS7003;62859;53.906;27.430;2023-02-26T22:46:35;3;2.3;2.3
74426;PMS7003;62859;53.906;27.430;2023-02-26T22:51:13;4.3;2.7;1.3
74426;PMS7003;62859;53.906;27.430;2023-02-26T22:57:03;1;1;0.7
74426;PMS7003;62859;53.906;27.430;2023-02-26T23:01:53;1.7;1.3;1
74426;PMS7003;62859;53.906;27.430;2023-02-26T23:07:03;2;2;1
74426;PMS7003;62859;53.906;27.430;2023-02-26T23:11:13;2.7;1.3;1
74426;PMS7003;62859;53.906;27.430;2023-02-26T23:16:35;0.7;0.7;0.7
74426;PMS7003;62859;53.906;27.430;2023-02-26T23:22:05;0.7;0.7;0.3
74426;PMS7003;62859;53.906;27.430;2023-02-26T23:26:55;0.8;0.8;0.5
74426;PMS7003;62859;53.906;27.430;2023-02-26T23:32:03;0.7;0.7;0.3
74426;PMS7003;62859;53.906;27.430;2023-02-26T23:36:25;0.7;0.7;0
74426;PMS7003;62859;53.906;27.430;2023-02-26T23:41:25;2;1.3;0.7
74426;PMS7003;62859;53.906;27.430;2023-02-26T23:47:05;1;0.5;0.5
74426;PMS7003;62859;53.906;27.430;2023-02-26T23:51:53;1.3;1;0.3
74426;PMS7003;62859;53.906;27.430;2023-02-26T23:57:03;0.7;0.7;0.3
